Time;durP1;ratioP1;P1;durP2;ratioP2;P2;SDS_P1;SDS_P2;PMS_P1;PMS_P2;Temp;Humidity;BMP_temperature;BMP_pressure;BME280_temperature;BME280_humidity;BME280_pressure;Samples;Min_cycle;Max_cycle;Signal;HPM_P1;HPM_P2
2022/06/18 00:02:28;;;;;;;4.95;2.80;;;23.00;77.10;;;;;;4984051;28;20189;-74
2022/06/18 00:04:56;;;;;;;5.43;2.80;;;23.00;77.10;;;;;;4981935;28;20189;-74
2022/06/18 00:07:25;;;;;;;7.32;2.40;;;23.00;77.00;;;;;;4984308;28;20867;-74
2022/06/18 00:10:01;;;;;;;5.88;2.75;;;23.00;77.00;;;;;;4983600;28;20194;-74
2022/06/18 00:15:20;;;;;;;5.72;2.40;;;23.00;77.10;;;;;;4981961;28;20255;-74
2022/06/18 00:17:49;;;;;;;4.03;2.40;;;22.90;77.00;;;;;;4982357;28;20189;-74
2022/06/18 00:20:19;;;;;;;6.43;2.60;;;22.90;77.10;;;;;;4984366;28;20201;-74
2022/06/18 00:22:49;;;;;;;3.70;2.25;;;22.90;77.10;;;;;;4975559;28;20729;-75
2022/06/18 00:25:26;;;;;;;4.60;2.50;;;22.90;77.10;;;;;;4987503;28;20185;-73
2022/06/18 00:27:56;;;;;;;5.63;2.45;;;22.90;77.10;;;;;;4983142;28;20211;-77
2022/06/18 00:30:26;;;;;;;7.40;2.85;;;22.90;77.10;;;;;;4981867;28;20260;-74
2022/06/18 00:32:55;;;;;;;8.63;2.60;;;22.80;77.00;;;;;;4982254;28;21766;-74
2022/06/18 00:35:23;;;;;;;3.65;2.15;;;22.80;77.00;;;;;;4979997;28;20194;-74
2022/06/18 00:37:55;;;;;;;4.50;2.10;;;22.80;77.00;;;;;;4983880;28;20201;-74
2022/06/18 00:40:28;;;;;;;4.25;2.30;;;22.80;77.00;;;;;;4991200;28;20197;-74
2022/06/18 00:42:59;;;;;;;4.22;2.50;;;22.70;77.00;;;;;;4986433;28;20197;-74
2022/06/18 00:45:29;;;;;;;5.95;2.50;;;22.80;77.20;;;;;;4984212;28;20205;-74
2022/06/18 00:48:12;;;;;;;3.92;2.55;;;22.70;77.20;;;;;;4982947;28;20220;-74
2022/06/18 00:50:47;;;;;;;7.63;2.47;;;22.70;77.20;;;;;;4981776;28;20689;-74
2022/06/18 00:53:21;;;;;;;3.40;2.35;;;22.70;77.30;;;;;;4980907;28;20204;-73
2022/06/18 00:55:55;;;;;;;4.72;2.85;;;22.60;77.20;;;;;;4983609;28;20208;-74
2022/06/18 00:58:29;;;;;;;7.00;2.28;;;22.60;77.30;;;;;;4978340;28;20758;-74
2022/06/18 01:00:59;;;;;;;5.10;2.33;;;22.60;77.30;;;;;;4983115;28;20193;-74
2022/06/18 01:03:31;;;;;;;5.82;2.58;;;22.60;77.30;;;;;;4979446;28;20596;-76
2022/06/18 01:06:02;;;;;;;5.45;2.35;;;22.60;77.30;;;;;;4982461;28;20200;-75
2022/06/18 01:08:34;;;;;;;5.68;2.58;;;22.60;77.40;;;;;;4982695;28;20200;-74
2022/06/18 01:11:10;;;;;;;3.50;2.40;;;22.60;77.40;;;;;;4982477;28;20193;-74
2022/06/18 01:13:41;;;;;;;5.38;2.45;;;22.60;77.40;;;;;;4982867;28;20192;-73
2022/06/18 01:16:11;;;;;;;4.15;2.30;;;22.60;77.40;;;;;;4977715;28;21460;-73
2022/06/18 01:18:40;;;;;;;3.90;2.20;;;22.60;77.40;;;;;;4981432;28;20246;-74
2022/06/18 01:21:24;;;;;;;4.47;2.72;;;22.60;77.50;;;;;;4982172;28;20839;-75
2022/06/18 01:23:56;;;;;;;5.63;2.63;;;22.60;77.50;;;;;;4972394;28;22355;-75
2022/06/18 01:26:27;;;;;;;4.82;2.45;;;22.60;77.50;;;;;;4980248;28;20201;-74
2022/06/18 01:28:56;;;;;;;7.88;2.70;;;22.60;77.50;;;;;;4981578;28;20220;-75
2022/06/18 01:31:24;;;;;;;3.47;2.33;;;22.60;77.50;;;;;;4983913;28;20185;-74
2022/06/18 01:33:52;;;;;;;4.55;2.67;;;22.60;77.50;;;;;;4980106;28;20682;-74
2022/06/18 01:36:21;;;;;;;5.97;2.70;;;22.60;77.50;;;;;;4982101;28;20673;-73
2022/06/18 01:38:49;;;;;;;4.88;2.20;;;22.60;77.40;;;;;;4982989;28;20201;-75
2022/06/18 01:44:16;;;;;;;3.92;2.35;;;22.50;77.30;;;;;;4985599;28;20193;-74
2022/06/18 01:46:48;;;;;;;3.95;2.40;;;22.50;77.40;;;;;;4984114;28;20181;-75
2022/06/18 01:49:21;;;;;;;3.10;2.15;;;22.50;77.30;;;;;;4978917;28;20224;-74
2022/06/18 01:51:52;;;;;;;2.40;2.00;;;22.50;77.30;;;;;;4980963;28;20198;-74
2022/06/18 01:54:23;;;;;;;4.70;2.28;;;22.50;77.30;;;;;;4981458;28;20251;-74
2022/06/18 01:56:58;;;;;;;4.70;2.42;;;22.40;77.40;;;;;;4980018;28;20201;-74
2022/06/18 01:59:31;;;;;;;4.63;2.55;;;22.40;77.50;;;;;;4984179;28;20200;-74
2022/06/18 02:02:00;;;;;;;3.65;2.63;;;22.40;77.70;;;;;;4981691;28;20185;-75
2022/06/18 02:04:29;;;;;;;5.10;2.53;;;22.40;77.90;;;;;;4984692;28;20199;-75
2022/06/18 02:06:57;;;;;;;6.07;2.55;;;22.30;77.90;;;;;;4981397;28;20225;-74
2022/06/18 02:09:36;;;;;;;2.92;2.13;;;22.30;78.10;;;;;;4982663;28;20205;-74
2022/06/18 02:12:07;;;;;;;3.33;2.30;;;22.30;78.10;;;;;;4982775;28;20201;-74
2022/06/18 02:14:40;;;;;;;5.63;2.60;;;22.30;78.10;;;;;;4985867;28;20197;-74
2022/06/18 02:17:17;;;;;;;3.97;2.38;;;22.20;78.10;;;;;;4976467;28;20201;-74
2022/06/18 02:19:52;;;;;;;6.53;2.80;;;22.20;78.10;;;;;;4982289;28;20213;-74
2022/06/18 02:22:26;;;;;;;7.90;2.70;;;22.20;78.10;;;;;;4982636;28;20260;-74
2022/06/18 02:24:54;;;;;;;6.28;2.92;;;22.20;78.40;;;;;;4983680;28;20197;-74
2022/06/18 02:27:24;;;;;;;6.28;2.58;;;22.20;78.40;;;;;;4979270;28;20228;-74
2022/06/18 02:29:55;;;;;;;7.03;2.65;;;22.20;78.40;;;;;;4983059;28;20193;-74
2022/06/18 02:32:30;;;;;;;5.40;2.60;;;22.20;78.60;;;;;;4981726;28;20541;-74
2022/06/18 02:34:59;;;;;;;5.80;2.60;;;22.20;78.60;;;;;;4977510;28;20193;-74
2022/06/18 02:37:31;;;;;;;4.15;2.60;;;22.20;78.60;;;;;;4974282;28;20204;-74
2022/06/18 02:40:02;;;;;;;3.65;2.45;;;22.20;78.70;;;;;;4981981;28;20201;-74
2022/06/18 02:42:34;;;;;;;4.15;2.15;;;22.10;78.70;;;;;;4981250;28;20200;-74
2022/06/18 02:45:06;;;;;;;5.13;2.63;;;22.10;78.60;;;;;;4983092;28;20567;-74
2022/06/18 02:47:35;;;;;;;4.85;2.42;;;22.10;78.60;;;;;;4979608;28;20242;-74
2022/06/18 02:50:08;;;;;;;3.50;2.50;;;22.10;78.60;;;;;;4981816;28;20201;-74
2022/06/18 02:52:41;;;;;;;5.43;2.40;;;22.10;78.70;;;;;;4980879;28;20189;-74
2022/06/18 02:55:13;;;;;;;5.90;2.30;;;22.10;78.80;;;;;;4979167;28;20221;-74
2022/06/18 02:57:42;;;;;;;6.43;2.60;;;22.10;78.80;;;;;;4980546;28;20224;-74
2022/06/18 03:00:14;;;;;;;3.25;2.20;;;22.10;78.90;;;;;;4981576;28;20197;-74
2022/06/18 03:02:43;;;;;;;3.28;2.40;;;22.10;78.90;;;;;;4977609;28;20255;-75
2022/06/18 03:05:19;;;;;;;3.45;2.38;;;22.10;79.00;;;;;;4978382;28;20232;-73
2022/06/18 03:07:48;;;;;;;5.70;2.90;;;22.10;79.00;;;;;;4979256;28;20216;-74
2022/06/18 03:13:03;;;;;;;4.65;2.80;;;22.10;79.00;;;;;;4982953;28;20204;-74
2022/06/18 03:15:33;;;;;;;3.60;2.40;;;22.10;79.10;;;;;;4982612;28;20200;-74
2022/06/18 03:18:02;;;;;;;5.45;2.53;;;22.10;79.10;;;;;;4982727;28;20679;-74
2022/06/18 03:20:50;;;;;;;4.03;2.50;;;22.10;79.20;;;;;;4981746;28;20189;-74
2022/06/18 03:23:19;;;;;;;6.70;2.58;;;22.00;79.30;;;;;;4980877;28;20710;-75
2022/06/18 03:25:48;;;;;;;4.13;2.58;;;22.00;79.40;;;;;;4983165;28;20204;-74
2022/06/18 03:28:18;;;;;;;5.72;3.00;;;22.00;79.40;;;;;;4978925;28;20775;-74
2022/06/18 03:30:48;;;;;;;3.38;2.35;;;22.00;79.30;;;;;;4979584;28;20219;-74
2022/06/18 03:33:16;;;;;;;4.85;2.58;;;22.00;79.30;;;;;;4980413;28;20197;-74
2022/06/18 03:35:47;;;;;;;4.72;2.50;;;22.00;79.30;;;;;;4982890;28;20201;-74
2022/06/18 03:38:22;;;;;;;3.33;2.42;;;22.00;79.20;;;;;;4980110;28;20243;-74
2022/06/18 03:40:52;;;;;;;5.68;2.75;;;22.00;79.30;;;;;;4979487;28;20197;-74
2022/06/18 03:43:21;;;;;;;5.82;2.72;;;22.00;79.30;;;;;;4980034;28;20200;-74
2022/06/18 03:45:54;;;;;;;3.78;2.60;;;22.00;79.30;;;;;;4981289;28;20204;-73
2022/06/18 03:48:27;;;;;;;5.07;2.70;;;22.00;79.30;;;;;;4980971;28;20998;-74
2022/06/18 03:50:55;;;;;;;6.90;3.17;;;22.00;79.30;;;;;;4980885;28;20201;-73
2022/06/18 03:53:24;;;;;;;6.00;3.10;;;22.00;79.30;;;;;;4976254;28;20244;-73
2022/06/18 03:55:52;;;;;;;5.15;2.92;;;22.00;79.20;;;;;;4978630;28;20192;-73
2022/06/18 03:58:21;;;;;;;7.82;2.97;;;22.00;79.10;;;;;;4982219;28;20201;-73
2022/06/18 04:00:51;;;;;;;5.22;2.72;;;22.00;79.10;;;;;;4983966;28;20212;-74
2022/06/18 04:03:19;;;;;;;4.65;2.50;;;22.10;79.10;;;;;;4981379;28;20252;-74
2022/06/18 04:05:48;;;;;;;4.15;2.20;;;22.10;79.10;;;;;;4983219;28;20207;-76
2022/06/18 04:08:19;;;;;;;4.45;2.53;;;22.10;78.90;;;;;;4981166;28;20221;-76
2022/06/18 04:10:48;;;;;;;4.13;2.58;;;22.10;78.80;;;;;;4976374;28;20438;-76
2022/06/18 04:13:17;;;;;;;3.20;2.40;;;22.10;78.40;;;;;;4976727;28;20197;-75
2022/06/18 04:15:47;;;;;;;3.78;2.25;;;22.10;78.30;;;;;;4979730;28;20211;-75
2022/06/18 04:18:17;;;;;;;3.05;2.00;;;22.20;78.10;;;;;;4984645;28;20560;-75
2022/06/18 04:20:45;;;;;;;4.22;2.53;;;22.20;78.20;;;;;;4984583;28;20204;-75
2022/06/18 04:23:16;;;;;;;4.03;2.85;;;22.30;78.10;;;;;;4984349;28;21047;-75
2022/06/18 04:25:45;;;;;;;3.90;2.53;;;22.30;78.10;;;;;;4984412;28;20192;-75
2022/06/18 04:28:15;;;;;;;6.75;2.63;;;22.30;77.70;;;;;;4983991;28;20225;-75
2022/06/18 04:30:43;;;;;;;4.25;2.20;;;22.30;77.70;;;;;;4983833;28;20228;-75
2022/06/18 04:33:12;;;;;;;3.92;2.40;;;22.30;77.30;;;;;;4979148;28;20201;-75
2022/06/18 04:35:51;;;;;;;3.13;2.00;;;22.40;76.90;;;;;;4983594;28;20559;-78
2022/06/18 04:38:21;;;;;;;3.33;2.20;;;22.40;76.30;;;;;;4982622;28;20288;-75
2022/06/18 04:40:49;;;;;;;4.22;2.00;;;22.40;76.20;;;;;;4983364;28;20216;-75
2022/06/18 04:43:27;;;;;;;4.07;2.33;;;22.40;76.00;;;;;;4982809;28;20555;-76
2022/06/18 04:45:57;;;;;;;4.15;2.00;;;22.40;75.80;;;;;;4987301;28;20215;-75
2022/06/18 04:48:26;;;;;;;5.35;2.40;;;22.40;76.00;;;;;;4981936;28;20219;-76
2022/06/18 04:50:55;;;;;;;4.07;2.65;;;22.40;76.00;;;;;;4982143;28;20215;-76
2022/06/18 04:53:24;;;;;;;4.88;2.30;;;22.50;75.80;;;;;;4984782;28;20224;-75
2022/06/18 04:55:52;;;;;;;6.25;2.30;;;22.50;75.80;;;;;;4985873;28;20196;-75
2022/06/18 04:58:20;;;;;;;3.58;2.30;;;22.50;75.50;;;;;;4984281;28;20292;-76
2022/06/18 05:00:49;;;;;;;3.60;2.30;;;22.50;75.50;;;;;;4983119;28;20205;-76
2022/06/18 05:03:20;;;;;;;4.18;2.20;;;22.50;75.40;;;;;;4983731;28;20844;-78
2022/06/18 05:05:49;;;;;;;4.35;2.40;;;22.50;75.30;;;;;;4983023;28;20280;-76
2022/06/18 05:08:19;;;;;;;4.78;2.20;;;22.50;75.30;;;;;;4985867;28;20205;-78
2022/06/18 05:10:47;;;;;;;4.18;2.10;;;22.60;75.50;;;;;;4980235;28;20616;-76
2022/06/18 05:13:16;;;;;;;2.90;2.10;;;22.60;75.40;;;;;;4984307;28;20193;-76
2022/06/18 05:15:46;;;;;;;3.00;1.80;;;22.60;75.30;;;;;;4985820;28;20203;-76
2022/06/18 05:18:16;;;;;;;2.55;1.77;;;22.60;74.90;;;;;;4982250;28;20296;-76
2022/06/18 05:20:48;;;;;;;2.72;1.95;;;22.60;74.80;;;;;;4984626;28;20636;-76
2022/06/18 05:23:16;;;;;;;2.10;1.90;;;22.70;74.80;;;;;;4982498;28;20201;-75
2022/06/18 05:25:48;;;;;;;3.30;2.33;;;22.70;74.80;;;;;;4984378;28;20536;-76
2022/06/18 05:28:17;;;;;;;5.50;1.80;;;22.70;74.80;;;;;;4978290;28;20224;-76
2022/06/18 05:30:45;;;;;;;3.10;1.77;;;22.70;74.10;;;;;;4983506;28;20939;-76
2022/06/18 05:33:14;;;;;;;3.05;2.15;;;22.70;73.60;;;;;;4975121;28;20251;-77
2022/06/18 05:35:43;;;;;;;4.63;2.10;;;22.70;73.00;;;;;;4975168;28;20205;-75
2022/06/18 05:38:16;;;;;;;3.28;2.20;;;22.70;73.20;;;;;;4982177;28;20239;-75
2022/06/18 05:40:46;;;;;;;3.20;2.03;;;22.70;73.30;;;;;;4976989;28;20196;-75
2022/06/18 05:43:15;;;;;;;5.90;1.83;;;22.70;73.40;;;;;;4979904;28;20197;-74
2022/06/18 05:45:44;;;;;;;3.25;2.33;;;22.70;73.70;;;;;;4982932;28;20284;-74
2022/06/18 05:48:13;;;;;;;4.18;2.13;;;22.70;73.90;;;;;;4984232;28;20694;-76
2022/06/18 05:50:42;;;;;;;3.20;2.40;;;22.70;73.80;;;;;;4982940;28;20785;-76
2022/06/18 05:53:11;;;;;;;3.28;2.13;;;22.80;74.00;;;;;;4984810;28;20197;-75
2022/06/18 05:55:39;;;;;;;3.53;2.25;;;22.80;74.20;;;;;;4981807;28;20192;-75
2022/06/18 05:58:10;;;;;;;4.28;2.20;;;22.80;74.10;;;;;;4984292;28;20288;-75
2022/06/18 06:00:39;;;;;;;3.08;2.10;;;22.80;74.10;;;;;;4981657;28;20189;-76
2022/06/18 06:03:07;;;;;;;3.10;2.03;;;22.90;73.90;;;;;;4982372;28;20272;-74
2022/06/18 06:05:36;;;;;;;5.32;2.10;;;22.90;73.90;;;;;;4983068;28;20193;-75
2022/06/18 06:08:05;;;;;;;3.10;2.03;;;23.00;74.80;;;;;;4982686;28;20208;-75
2022/06/18 06:13:24;;;;;;;3.13;1.92;;;23.00;73.90;;;;;;4977298;28;20196;-75
2022/06/18 06:15:53;;;;;;;5.38;2.05;;;23.00;73.80;;;;;;4979791;28;20193;-75
2022/06/18 06:18:28;;;;;;;2.95;1.95;;;23.00;73.90;;;;;;4975288;28;20645;-74
2022/06/18 06:20:57;;;;;;;3.00;2.17;;;23.10;74.10;;;;;;4979701;28;20224;-75
2022/06/18 06:23:26;;;;;;;2.95;2.03;;;23.20;74.10;;;;;;4981665;28;20192;-74
2022/06/18 06:25:55;;;;;;;5.38;2.20;;;23.20;74.10;;;;;;4979527;28;20209;-75
2022/06/18 06:28:27;;;;;;;4.00;1.90;;;23.30;74.10;;;;;;4984064;28;20193;-74
2022/06/18 06:30:56;;;;;;;2.35;1.63;;;23.40;74.10;;;;;;4985468;28;20221;-76
2022/06/18 06:33:25;;;;;;;2.72;1.67;;;23.50;73.80;;;;;;4985757;28;20212;-75
2022/06/18 06:35:55;;;;;;;4.18;2.38;;;23.60;73.80;;;;;;4979892;28;20686;-75
2022/06/18 06:38:23;;;;;;;2.92;1.75;;;23.70;73.40;;;;;;4984088;28;20205;-76
2022/06/18 06:40:51;;;;;;;3.53;1.80;;;23.80;73.40;;;;;;4982757;28;20208;-75
2022/06/18 06:43:20;;;;;;;1.95;1.50;;;23.90;73.20;;;;;;4981388;28;20204;-75
2022/06/18 06:45:49;;;;;;;2.33;1.55;;;24.00;72.70;;;;;;4983530;28;20201;-75
2022/06/18 06:48:18;;;;;;;4.20;1.80;;;24.00;72.20;;;;;;4981216;28;20200;-75
2022/06/18 06:50:49;;;;;;;4.68;1.90;;;24.10;71.80;;;;;;4985186;28;20232;-75
2022/06/18 06:53:17;;;;;;;3.17;1.80;;;24.30;71.30;;;;;;4979305;28;20185;-77
2022/06/18 06:58:33;;;;;;;3.15;1.40;;;24.40;70.50;;;;;;4981891;28;20394;-76
2022/06/18 07:01:03;;;;;;;5.97;2.10;;;24.40;70.70;;;;;;4980449;28;20555;-76
2022/06/18 07:03:34;;;;;;;3.83;1.98;;;24.40;70.50;;;;;;4982618;28;20224;-77
2022/06/18 07:06:03;;;;;;;6.00;1.83;;;24.50;70.30;;;;;;4984884;28;20332;-76
2022/06/18 07:08:32;;;;;;;1.90;1.40;;;24.50;70.10;;;;;;4981450;28;20869;-75
2022/06/18 07:11:00;;;;;;;2.92;1.75;;;24.50;70.00;;;;;;4978086;28;21746;-75
2022/06/18 07:13:30;;;;;;;3.28;1.63;;;24.50;69.70;;;;;;4982759;28;20189;-77
2022/06/18 07:15:59;;;;;;;3.10;1.60;;;24.50;69.60;;;;;;4983229;28;20205;-78
2022/06/18 07:18:33;;;;;;;6.32;1.95;;;24.60;69.70;;;;;;4978359;28;20248;-76
2022/06/18 07:21:03;;;;;;;2.70;1.75;;;24.60;69.40;;;;;;4982773;28;20204;-76
2022/06/18 07:23:32;;;;;;;2.60;1.60;;;24.60;69.50;;;;;;4983625;28;20517;-76
2022/06/18 07:26:00;;;;;;;2.88;1.75;;;24.70;69.60;;;;;;4982280;28;20197;-76
2022/06/18 07:28:29;;;;;;;3.20;1.52;;;24.80;69.40;;;;;;4980216;28;20193;-75
2022/06/18 07:30:58;;;;;;;5.53;1.90;;;24.80;69.10;;;;;;4975929;28;20232;-77
2022/06/18 07:33:28;;;;;;;5.35;1.80;;;24.90;69.00;;;;;;4980293;28;20852;-76
2022/06/18 07:35:57;;;;;;;2.92;1.60;;;24.90;68.50;;;;;;4980580;28;20189;-78
2022/06/18 07:38:27;;;;;;;2.65;1.40;;;25.00;68.10;;;;;;4981253;28;20204;-77
2022/06/18 07:40:56;;;;;;;3.67;1.40;;;25.00;67.70;;;;;;4977017;28;20193;-77
2022/06/18 07:43:32;;;;;;;5.45;1.75;;;25.00;66.10;;;;;;4981814;28;20197;-78
2022/06/18 07:46:02;;;;;;;2.15;1.45;;;25.00;65.20;;;;;;4979407;28;20272;-79
2022/06/18 07:48:31;;;;;;;4.60;1.40;;;25.00;65.00;;;;;;4980928;28;20205;-77
2022/06/18 07:51:01;;;;;;;1.50;1.40;;;25.10;65.50;;;;;;4981031;28;20220;-78
2022/06/18 07:53:29;;;;;;;3.63;1.55;;;25.10;66.00;;;;;;4979979;28;20216;-77
2022/06/18 07:55:58;;;;;;;3.50;1.30;;;25.10;65.50;;;;;;4984563;28;20201;-76
2022/06/18 07:58:27;;;;;;;2.28;1.40;;;25.20;66.10;;;;;;4982545;28;20201;-76
2022/06/18 08:00:57;;;;;;;2.15;1.83;;;25.30;66.40;;;;;;4986772;28;20240;-75
2022/06/18 08:03:26;;;;;;;4.70;1.73;;;25.40;66.60;;;;;;4983577;28;20193;-76
2022/06/18 08:05:55;;;;;;;5.10;1.83;;;25.40;66.10;;;;;;4985916;28;20197;-76
2022/06/18 08:08:25;;;;;;;3.83;1.65;;;25.50;66.20;;;;;;4982884;28;20186;-75
2022/06/18 08:11:05;;;;;;;2.60;1.60;;;25.60;66.50;;;;;;4986135;28;20216;-76
2022/06/18 08:13:34;;;;;;;1.67;1.58;;;25.70;66.50;;;;;;4954901;28;20205;-77
2022/06/18 08:16:03;;;;;;;1.67;1.35;;;25.80;66.80;;;;;;4984011;28;20205;-76
2022/06/18 08:18:32;;;;;;;3.42;1.50;;;25.80;64.70;;;;;;4986196;28;20197;-75
2022/06/18 08:21:06;;;;;;;3.30;1.58;;;25.90;64.70;;;;;;4982727;28;20232;-75
2022/06/18 08:23:37;;;;;;;2.92;1.95;;;25.90;64.40;;;;;;4984794;28;20869;-75
2022/06/18 08:26:07;;;;;;;3.80;1.80;;;26.00;64.60;;;;;;4981620;28;20189;-76
2022/06/18 08:28:37;;;;;;;2.10;1.40;;;26.10;65.00;;;;;;4982527;28;20196;-75
2022/06/18 08:31:06;;;;;;;5.63;1.70;;;26.10;64.20;;;;;;4990418;28;20861;-76
2022/06/18 08:33:35;;;;;;;2.00;1.42;;;26.20;64.20;;;;;;4981831;28;20668;-75
2022/06/18 08:36:08;;;;;;;4.05;1.83;;;26.20;63.30;;;;;;4981244;28;20197;-76
2022/06/18 08:38:40;;;;;;;4.22;1.70;;;26.20;63.50;;;;;;4989162;28;20228;-77
2022/06/18 08:41:20;;;;;;;4.38;1.58;;;26.30;63.50;;;;;;4986104;28;20189;-76
2022/06/18 08:44:22;;;;;;;3.58;1.55;;;26.40;63.40;;;;;;4984047;28;20196;-76
2022/06/18 08:47:02;;;;;;;2.55;1.60;;;26.40;61.60;;;;;;4947932;28;20201;-76
2022/06/18 08:49:49;;;;;;;4.85;1.60;;;26.40;62.00;;;;;;4982082;28;20185;-75
2022/06/18 08:52:45;;;;;;;3.15;1.40;;;26.50;62.50;;;;;;4990170;28;20212;-77
2022/06/18 08:55:20;;;;;;;4.95;1.67;;;26.50;62.20;;;;;;4986100;28;20197;-77
2022/06/18 08:57:54;;;;;;;4.53;1.77;;;26.50;62.50;;;;;;4976817;28;20646;-76
2022/06/18 09:00:28;;;;;;;2.13;1.50;;;26.60;62.50;;;;;;4977323;28;20189;-78
2022/06/18 09:03:02;;;;;;;3.33;1.65;;;26.60;61.50;;;;;;4985035;28;20204;-76
2022/06/18 09:06:01;;;;;;;4.18;1.52;;;26.60;59.70;;;;;;4988152;28;20193;-75
2022/06/18 09:08:44;;;;;;;3.55;1.40;;;26.60;60.30;;;;;;4986672;28;20205;-76
2022/06/18 09:11:24;;;;;;;1.90;1.30;;;26.60;60.70;;;;;;4983088;28;20224;-76
2022/06/18 09:13:58;;;;;;;1.70;1.30;;;26.60;60.90;;;;;;4981667;28;20197;-75
2022/06/18 09:16:34;;;;;;;1.45;1.23;;;26.50;60.00;;;;;;4986964;28;20213;-76
2022/06/18 09:19:07;;;;;;;4.78;1.75;;;26.50;59.70;;;;;;4985923;28;20200;-75
2022/06/18 09:21:41;;;;;;;2.65;1.30;;;26.50;59.90;;;;;;4985671;28;20197;-75
2022/06/18 09:24:15;;;;;;;2.92;1.20;;;26.60;60.30;;;;;;4987053;28;20205;-75
2022/06/18 09:26:51;;;;;;;2.90;1.27;;;26.60;59.70;;;;;;4984285;28;20201;-76
2022/06/18 09:29:25;;;;;;;2.30;1.25;;;26.60;59.40;;;;;;4986285;28;20649;-78
2022/06/18 09:32:00;;;;;;;3.60;1.20;;;26.70;59.10;;;;;;4990934;28;20913;-77
2022/06/18 09:34:35;;;;;;;2.42;1.25;;;26.80;59.10;;;;;;4987205;28;20306;-76
2022/06/18 09:37:09;;;;;;;2.03;1.30;;;26.80;59.20;;;;;;4985091;28;20200;-76
2022/06/18 09:39:42;;;;;;;3.35;1.20;;;26.80;59.20;;;;;;4985395;28;20197;-77
2022/06/18 09:42:16;;;;;;;2.28;1.20;;;26.90;59.30;;;;;;4979465;28;20352;-76
2022/06/18 09:44:51;;;;;;;1.45;1.05;;;27.00;59.50;;;;;;4988972;28;20197;-77
2022/06/18 09:47:26;;;;;;;2.20;1.17;;;27.10;59.80;;;;;;4986995;28;20863;-75
2022/06/18 09:49:54;;;;;;;8.05;1.20;;;27.20;59.70;;;;;;4985085;28;20192;-77
2022/06/18 09:52:33;;;;;;;4.93;1.38;;;27.20;59.20;;;;;;4988966;28;20232;-78
2022/06/18 09:55:06;;;;;;;2.30;1.13;;;27.30;58.20;;;;;;4988845;28;20223;-78
2022/06/18 09:57:41;;;;;;;4.32;0.90;;;27.30;58.60;;;;;;4987791;28;20197;-78
2022/06/18 10:00:12;;;;;;;2.83;1.20;;;27.40;58.60;;;;;;4987128;28;20200;-77
2022/06/18 10:02:47;;;;;;;2.72;1.30;;;27.50;58.40;;;;;;4987434;28;20232;-77
2022/06/18 10:08:09;;;;;;;1.58;0.95;;;27.50;57.00;;;;;;4986960;28;20201;-76
2022/06/18 10:10:42;;;;;;;1.48;1.05;;;27.50;57.20;;;;;;4984423;28;20216;-76
2022/06/18 10:13:18;;;;;;;5.28;1.08;;;27.60;56.50;;;;;;4987922;28;20216;-78
2022/06/18 10:15:47;;;;;;;2.90;1.05;;;27.60;53.90;;;;;;4986083;28;20196;-78
2022/06/18 10:18:31;;;;;;;1.10;0.82;;;27.60;54.50;;;;;;4986789;28;20209;-77
2022/06/18 10:21:10;;;;;;;2.00;0.90;;;27.70;54.30;;;;;;4985158;28;20252;-77
2022/06/18 10:23:50;;;;;;;2.55;1.00;;;27.80;54.50;;;;;;4984904;28;20650;-77
2022/06/18 10:26:29;;;;;;;2.08;1.00;;;27.90;54.70;;;;;;4988583;28;20189;-76
2022/06/18 10:29:04;;;;;;;3.03;0.85;;;28.00;54.20;;;;;;4989226;28;20288;-77
2022/06/18 10:31:47;;;;;;;4.35;0.88;;;27.90;53.90;;;;;;4989004;28;20216;-77
2022/06/18 10:34:34;;;;;;;1.33;0.77;;;28.00;53.30;;;;;;4983486;28;20197;-77
2022/06/18 10:37:11;;;;;;;2.65;0.93;;;28.10;54.20;;;;;;4986225;28;20578;-77
2022/06/18 10:40:05;;;;;;;1.40;0.80;;;28.00;52.50;;;;;;4982176;28;20193;-76
2022/06/18 10:42:51;;;;;;;2.92;1.00;;;28.00;52.50;;;;;;4989447;28;20192;-77
2022/06/18 10:45:31;;;;;;;1.83;0.88;;;28.10;53.10;;;;;;4989177;28;20201;-77
2022/06/18 10:48:00;;;;;;;1.35;0.90;;;28.10;52.40;;;;;;4989814;28;20197;-77
2022/06/18 10:50:29;;;;;;;1.98;0.90;;;28.20;52.40;;;;;;4989733;28;20859;-77
2022/06/18 10:53:02;;;;;;;2.08;0.80;;;28.30;52.50;;;;;;4994621;28;20228;-77
2022/06/18 10:55:31;;;;;;;2.08;1.10;;;28.30;53.00;;;;;;4985010;28;20208;-76
2022/06/18 10:58:10;;;;;;;2.33;1.10;;;28.40;52.80;;;;;;4987180;28;20899;-76
2022/06/18 11:00:42;;;;;;;2.75;1.30;;;28.50;52.80;;;;;;4987337;28;20874;-79
2022/06/18 11:03:20;;;;;;;2.78;0.88;;;28.50;52.40;;;;;;4985717;28;20573;-77
2022/06/18 11:05:49;;;;;;;3.28;1.02;;;28.60;52.10;;;;;;4984891;28;20224;-77
2022/06/18 11:08:22;;;;;;;4.75;1.10;;;28.70;52.40;;;;;;4984863;28;20556;-77
2022/06/18 11:10:55;;;;;;;3.80;1.10;;;28.80;52.60;;;;;;4984521;28;20190;-76
2022/06/18 11:13:28;;;;;;;5.93;1.30;;;28.90;53.20;;;;;;4983777;28;20701;-76
2022/06/18 11:16:14;;;;;;;2.80;0.93;;;28.90;53.40;;;;;;4991082;28;20201;-79
2022/06/18 11:18:48;;;;;;;2.88;1.10;;;28.90;53.00;;;;;;4986999;28;20288;-77
2022/06/18 11:21:33;;;;;;;1.60;0.90;;;28.90;52.60;;;;;;4987682;28;20196;-76
2022/06/18 11:24:04;;;;;;;1.98;1.20;;;28.90;52.60;;;;;;4986684;28;20691;-77
2022/06/18 11:26:39;;;;;;;2.63;1.25;;;28.90;52.60;;;;;;4986028;28;20192;-77
2022/06/18 11:29:14;;;;;;;1.58;1.00;;;28.90;51.70;;;;;;4991460;28;20211;-78
2022/06/18 11:31:49;;;;;;;1.67;1.00;;;29.00;52.10;;;;;;4991238;28;20670;-76
2022/06/18 11:34:22;;;;;;;2.55;1.00;;;29.10;52.40;;;;;;4987233;28;20188;-77
2022/06/18 11:36:52;;;;;;;3.22;0.80;;;29.20;52.60;;;;;;4990008;28;20193;-77
2022/06/18 11:39:32;;;;;;;2.33;0.88;;;29.10;52.20;;;;;;4997555;28;20630;-76
2022/06/18 11:42:09;;;;;;;1.17;0.80;;;29.10;52.10;;;;;;5000557;28;20703;-78
2022/06/18 11:44:44;;;;;;;2.85;1.10;;;29.10;52.20;;;;;;4983951;28;20184;-77
2022/06/18 11:47:19;;;;;;;5.43;1.10;;;29.00;51.80;;;;;;4994752;28;20197;-75
2022/06/18 11:49:57;;;;;;;1.80;0.98;;;29.00;51.60;;;;;;4987210;28;20203;-75
2022/06/18 11:52:34;;;;;;;3.45;1.48;;;29.00;51.80;;;;;;4989048;28;20748;-76
2022/06/18 11:55:14;;;;;;;1.88;1.27;;;28.90;52.00;;;;;;4989258;28;20284;-78
2022/06/18 11:57:48;;;;;;;1.58;1.20;;;28.90;52.10;;;;;;4993706;28;20197;-76
2022/06/18 12:00:32;;;;;;;1.90;1.13;;;28.90;52.10;;;;;;4986202;28;20830;-76
2022/06/18 12:03:23;;;;;;;1.60;1.15;;;28.90;52.30;;;;;;4995968;28;20205;-75
2022/06/18 12:05:58;;;;;;;1.92;1.30;;;29.00;52.40;;;;;;4990624;28;20193;-77
2022/06/18 12:08:26;;;;;;;1.73;1.00;;;29.10;51.70;;;;;;4997219;28;20211;-77
2022/06/18 12:11:04;;;;;;;1.30;0.90;;;29.20;51.70;;;;;;4994308;28;20197;-77
2022/06/18 12:13:40;;;;;;;0.98;0.85;;;29.30;51.80;;;;;;4990706;28;20232;-77
2022/06/18 12:16:22;;;;;;;1.40;0.80;;;29.30;51.10;;;;;;4999605;28;20201;-76
2022/06/18 12:19:00;;;;;;;1.70;0.90;;;29.40;51.00;;;;;;4987897;28;20244;-75
2022/06/18 12:21:42;;;;;;;2.20;1.40;;;29.40;51.30;;;;;;4989435;28;20232;-76
2022/06/18 12:24:22;;;;;;;2.13;0.98;;;29.60;51.70;;;;;;4989835;28;20562;-76
2022/06/18 12:26:58;;;;;;;2.25;1.33;;;29.70;51.70;;;;;;4989928;28;20280;-76
2022/06/18 12:29:46;;;;;;;1.83;1.00;;;29.80;50.70;;;;;;4987381;28;20189;-78
2022/06/18 12:32:22;;;;;;;3.30;1.33;;;29.80;49.40;;;;;;4985141;28;20207;-76
2022/06/18 12:35:01;;;;;;;1.42;1.00;;;29.90;49.70;;;;;;5003699;28;20197;-77
2022/06/18 12:37:39;;;;;;;2.88;0.98;;;30.10;50.20;;;;;;4999405;28;20197;-77
2022/06/18 12:40:14;;;;;;;1.30;1.10;;;30.30;50.50;;;;;;4997015;28;20300;-78
2022/06/18 12:42:47;;;;;;;1.85;1.10;;;30.50;50.60;;;;;;4991412;28;20199;-76
2022/06/18 12:45:23;;;;;;;2.17;1.00;;;30.80;50.40;;;;;;4995584;28;20204;-75
2022/06/18 12:48:01;;;;;;;3.25;1.00;;;31.00;49.60;;;;;;4993992;28;20224;-76
2022/06/18 12:50:43;;;;;;;1.60;0.90;;;31.10;48.30;;;;;;4988392;28;20682;-76
2022/06/18 12:53:28;;;;;;;1.08;0.70;;;31.10;48.30;;;;;;4988128;28;20975;-77
2022/06/18 12:56:03;;;;;;;1.00;0.90;;;31.10;47.20;;;;;;4988060;28;20843;-75
2022/06/18 12:58:39;;;;;;;1.48;1.05;;;31.10;46.90;;;;;;4992561;28;20287;-75
2022/06/18 13:01:13;;;;;;;1.52;1.08;;;31.00;46.80;;;;;;4999026;28;20185;-76
2022/06/18 13:04:04;;;;;;;3.00;0.90;;;30.90;46.20;;;;;;5003812;28;20193;-75
2022/06/18 13:06:42;;;;;;;2.20;0.90;;;30.80;46.30;;;;;;4994390;28;20198;-76
2022/06/18 13:09:19;;;;;;;2.00;0.88;;;30.90;47.00;;;;;;4979907;28;20193;-77
2022/06/18 13:12:00;;;;;;;1.63;0.90;;;31.00;46.80;;;;;;4990582;28;20209;-75
2022/06/18 13:14:46;;;;;;;2.90;0.90;;;31.00;47.00;;;;;;4994174;28;20280;-76
2022/06/18 13:17:19;;;;;;;2.75;1.05;;;31.10;47.30;;;;;;4986621;28;20199;-77
2022/06/18 13:20:05;;;;;;;0.85;0.70;;;31.30;46.90;;;;;;4991021;28;20200;-78
2022/06/18 13:22:35;;;;;;;1.08;0.75;;;31.40;45.70;;;;;;4986907;28;20243;-77
2022/06/18 13:28:12;;;;;;;1.17;0.85;;;32.00;46.60;;;;;;4988236;28;20197;-76
2022/06/18 13:30:59;;;;;;;1.88;0.80;;;32.30;46.20;;;;;;4986218;28;20734;-77
2022/06/18 13:33:43;;;;;;;1.38;1.00;;;32.50;46.00;;;;;;4987129;28;20230;-77
2022/06/18 13:36:31;;;;;;;1.52;1.00;;;32.40;44.60;;;;;;4988826;28;20194;-77
2022/06/18 13:39:07;;;;;;;3.05;1.00;;;32.30;44.10;;;;;;4995085;28;20197;-77